createdAt,value
2023-06-20T00:01:17.573Z,17.70
2023-06-20T00:04:32.525Z,17.70
2023-06-20T00:07:42.343Z,17.70
2023-06-20T00:10:53.822Z,17.70
2023-06-20T00:14:16.472Z,17.70
2023-06-20T00:17:31.851Z,17.70
2023-06-20T00:24:18.055Z,17.70
2023-06-20T00:27:37.859Z,17.70
2023-06-20T00:30:48.191Z,17.70
2023-06-20T00:34:05.967Z,17.60
2023-06-20T00:37:15.440Z,17.60
2023-06-20T00:40:24.573Z,17.60
2023-06-20T00:43:30.626Z,17.60
2023-06-20T00:46:38.142Z,17.60
2023-06-20T00:49:43.278Z,17.60
2023-06-20T00:52:49.455Z,17.60
2023-06-20T00:55:53.930Z,17.50
2023-06-20T00:58:58.891Z,17.50
2023-06-20T01:02:04.477Z,17.50
2023-06-20T01:05:09.042Z,17.50
2023-06-20T01:08:15.612Z,17.50
2023-06-20T01:11:38.761Z,17.40
2023-06-20T01:14:46.437Z,17.40
2023-06-20T01:17:56.716Z,17.40
2023-06-20T01:21:08.479Z,17.50
2023-06-20T01:24:16.210Z,17.40
2023-06-20T01:27:28.615Z,17.50
2023-06-20T01:30:43.395Z,17.50
2023-06-20T01:33:52.509Z,17.50
2023-06-20T01:36:58.220Z,17.50
2023-06-20T01:40:03.831Z,17.50
2023-06-20T01:43:12.836Z,17.60
2023-06-20T01:46:19.592Z,17.60
2023-06-20T01:49:25.144Z,17.60
2023-06-20T01:52:29.330Z,17.60
2023-06-20T01:55:34.984Z,17.60
2023-06-20T01:58:41.915Z,17.60
2023-06-20T02:01:48.332Z,17.60
2023-06-20T02:04:57.827Z,17.60
2023-06-20T02:08:02.675Z,17.50
2023-06-20T02:11:09.524Z,17.40
2023-06-20T02:14:14.688Z,17.30
2023-06-20T02:17:19.088Z,17.30
2023-06-20T02:20:23.656Z,17.20
2023-06-20T02:23:28.347Z,17.20
2023-06-20T02:26:36.051Z,17.20
2023-06-20T02:29:41.729Z,17.20
2023-06-20T02:32:46.434Z,17.20
2023-06-20T02:35:53.717Z,17.20
2023-06-20T02:38:58.576Z,17.30
2023-06-20T02:42:03.131Z,17.30
2023-06-20T02:45:07.966Z,17.30
2023-06-20T02:48:12.070Z,17.30
2023-06-20T02:51:37.840Z,17.30
2023-06-20T02:54:42.304Z,17.30
2023-06-20T02:57:51.773Z,17.40
2023-06-20T03:00:58.628Z,17.40
2023-06-20T03:04:03.951Z,17.30
2023-06-20T03:07:08.982Z,17.40
2023-06-20T03:10:13.469Z,17.30
2023-06-20T03:13:17.762Z,17.40
2023-06-20T03:16:27.798Z,17.40
2023-06-20T03:19:34.028Z,17.40
2023-06-20T03:22:40.991Z,17.40
2023-06-20T03:25:47.208Z,17.40
2023-06-20T03:28:51.602Z,17.40
2023-06-20T03:31:57.014Z,17.50
2023-06-20T03:35:01.480Z,17.60
2023-06-20T03:38:06.289Z,17.60
2023-06-20T03:41:11.453Z,17.70
2023-06-20T03:44:16.933Z,17.70
2023-06-20T03:47:21.533Z,17.70
2023-06-20T03:50:26.012Z,17.70
2023-06-20T03:53:30.768Z,17.80
2023-06-20T03:56:35.176Z,17.80
2023-06-20T03:59:39.823Z,17.90
2023-06-20T04:02:46.094Z,17.90
2023-06-20T04:05:51.115Z,18.10
2023-06-20T04:08:55.647Z,18.10
2023-06-20T04:12:00.804Z,18.20
2023-06-20T04:15:07.892Z,18.20
2023-06-20T04:18:12.474Z,18.30
2023-06-20T04:21:17.604Z,18.30
2023-06-20T04:24:22.076Z,18.30
2023-06-20T04:27:26.980Z,18.20
2023-06-20T04:30:34.540Z,18.20
2023-06-20T04:33:44.479Z,18.20
2023-06-20T04:36:49.427Z,18.20
2023-06-20T04:39:54.042Z,18.20
2023-06-20T04:42:58.945Z,18.40
2023-06-20T04:46:04.054Z,18.70
2023-06-20T04:49:08.518Z,18.90
2023-06-20T04:52:13.216Z,19.10
2023-06-20T04:55:17.703Z,19.00
2023-06-20T04:58:22.303Z,19.20
2023-06-20T05:01:27.152Z,19.40
2023-06-20T05:04:31.958Z,19.50
2023-06-20T05:07:36.420Z,19.60
2023-06-20T05:10:40.772Z,19.80
2023-06-20T05:13:45.532Z,19.90
2023-06-20T05:16:50.110Z,19.80
2023-06-20T05:19:54.923Z,19.90
2023-06-20T05:23:00.914Z,19.90
2023-06-20T05:26:05.772Z,20.10
2023-06-20T05:29:10.262Z,19.90
2023-06-20T05:32:14.887Z,20.00
2023-06-20T05:35:19.471Z,19.90
2023-06-20T05:38:23.931Z,19.50
2023-06-20T05:41:28.498Z,19.70
2023-06-20T05:44:33.164Z,19.80
2023-06-20T05:47:37.706Z,20.00
2023-06-20T05:50:42.084Z,20.10
2023-06-20T05:53:46.574Z,20.50
2023-06-20T05:56:51.652Z,20.50
2023-06-20T05:59:55.942Z,20.30
2023-06-20T06:03:00.442Z,20.60
2023-06-20T06:06:05.003Z,20.60
2023-06-20T06:09:09.524Z,20.50
2023-06-20T06:12:13.785Z,20.90
2023-06-20T06:15:18.398Z,21.50
2023-06-20T06:18:22.857Z,21.70
2023-06-20T06:21:27.701Z,21.80
2023-06-20T06:24:32.505Z,21.80
2023-06-20T06:27:37.320Z,21.70
2023-06-20T06:30:41.942Z,21.90
2023-06-20T06:33:46.820Z,22.10
2023-06-20T06:36:51.525Z,22.30
2023-06-20T06:39:56.483Z,21.70
2023-06-20T06:43:00.991Z,21.80
2023-06-20T06:46:07.075Z,21.80
2023-06-20T06:49:11.740Z,21.80
2023-06-20T06:52:16.613Z,22.10
2023-06-20T06:55:21.244Z,22.40
2023-06-20T06:58:25.881Z,22.40
2023-06-20T07:01:30.617Z,22.30
2023-06-20T07:04:35.069Z,22.10
2023-06-20T07:07:39.758Z,21.90
2023-06-20T07:10:44.136Z,22.50
2023-06-20T07:13:48.577Z,22.70
2023-06-20T07:17:04.717Z,23.20
2023-06-20T07:20:10.817Z,23.10
2023-06-20T07:23:15.315Z,22.90
2023-06-20T07:26:19.689Z,23.90
2023-06-20T07:29:24.380Z,24.70
2023-06-20T07:32:28.762Z,24.80
2023-06-20T07:35:34.123Z,25.00
2023-06-20T07:38:38.884Z,25.50
2023-06-20T07:41:43.148Z,25.60
2023-06-20T07:44:47.456Z,26.10
2023-06-20T07:47:52.192Z,26.60
2023-06-20T07:50:57.556Z,26.80
2023-06-20T07:54:02.156Z,26.30
2023-06-20T07:57:06.753Z,26.70
2023-06-20T08:00:12.481Z,26.60
2023-06-20T08:03:22.666Z,26.70
2023-06-20T08:06:27.256Z,26.90
2023-06-20T08:09:32.009Z,27.00
2023-06-20T08:12:36.946Z,27.40
2023-06-20T08:15:41.366Z,27.00
2023-06-20T08:18:45.701Z,26.00
2023-06-20T08:21:50.128Z,26.00
2023-06-20T08:24:54.552Z,24.20
2023-06-20T08:28:13.607Z,25.10
2023-06-20T08:31:19.399Z,25.20
2023-06-20T08:34:24.105Z,24.10
2023-06-20T08:37:28.702Z,25.30
2023-06-20T08:40:33.412Z,24.50
2023-06-20T08:43:38.008Z,24.80
2023-06-20T08:46:42.648Z,24.60
2023-06-20T08:49:47.148Z,25.20
2023-06-20T08:52:53.487Z,26.00
2023-06-20T08:55:58.329Z,25.70
2023-06-20T08:59:02.674Z,25.70
2023-06-20T09:02:09.077Z,25.80
2023-06-20T09:05:13.481Z,24.80
2023-06-20T09:08:17.611Z,25.50
2023-06-20T09:11:25.791Z,25.10
2023-06-20T09:14:30.874Z,25.00
2023-06-20T09:17:35.535Z,25.10
2023-06-20T09:20:41.488Z,24.80
2023-06-20T09:23:45.708Z,25.20
2023-06-20T09:26:51.000Z,24.70
2023-06-20T09:30:01.658Z,25.10
2023-06-20T09:33:06.393Z,25.70
2023-06-20T09:36:11.416Z,24.70
2023-06-20T09:39:18.664Z,24.80
2023-06-20T09:42:24.057Z,25.20
2023-06-20T09:45:28.364Z,25.40
2023-06-20T09:48:33.833Z,24.40
2023-06-20T09:52:04.355Z,24.00
2023-06-20T09:55:12.747Z,25.80
2023-06-20T09:58:18.213Z,26.80
2023-06-20T10:01:22.894Z,27.20
2023-06-20T10:04:28.023Z,28.60
2023-06-20T10:07:32.822Z,29.30
2023-06-20T10:10:37.280Z,27.70
2023-06-20T10:13:42.466Z,25.70
2023-06-20T10:16:53.294Z,25.80
2023-06-20T10:19:58.335Z,25.20
2023-06-20T10:23:06.137Z,26.50
2023-06-20T10:26:12.380Z,27.30
2023-06-20T10:29:17.029Z,28.10
2023-06-20T10:32:21.624Z,28.80
2023-06-20T10:35:28.531Z,28.00
2023-06-20T10:38:33.931Z,29.30
2023-06-20T10:41:38.420Z,28.30
2023-06-20T10:44:44.401Z,26.90
2023-06-20T10:47:48.992Z,27.30
2023-06-20T10:51:00.987Z,26.70
2023-06-20T10:54:12.271Z,26.40
2023-06-20T10:57:16.423Z,27.10
2023-06-20T11:00:22.888Z,25.90
2023-06-20T11:03:28.737Z,26.30
2023-06-20T11:06:33.651Z,25.80
2023-06-20T11:09:39.357Z,25.60
2023-06-20T11:12:46.670Z,26.40
2023-06-20T11:15:51.846Z,26.40
2023-06-20T11:18:58.377Z,25.80
2023-06-20T11:22:02.930Z,24.90
2023-06-20T11:25:08.561Z,24.60
2023-06-20T11:28:16.570Z,24.70
2023-06-20T11:31:21.284Z,24.20
2023-06-20T11:34:25.786Z,23.90
2023-06-20T11:37:30.605Z,25.10
2023-06-20T11:40:34.986Z,24.70
2023-06-20T11:43:39.329Z,25.00
2023-06-20T11:46:44.632Z,24.20
2023-06-20T11:49:48.904Z,24.30
2023-06-20T11:52:57.951Z,24.00
2023-06-20T11:59:21.887Z,23.40
2023-06-20T12:02:27.774Z,23.70
2023-06-20T12:05:32.198Z,23.60
2023-06-20T12:08:36.440Z,23.70
2023-06-20T12:11:48.356Z,23.50
2023-06-20T12:14:53.549Z,23.40
2023-06-20T12:17:57.990Z,23.20
2023-06-20T12:21:04.535Z,23.20
2023-06-20T12:24:09.934Z,23.60
2023-06-20T12:27:14.297Z,23.80
2023-06-20T12:30:19.006Z,23.80
2023-06-20T12:33:23.624Z,23.70
2023-06-20T12:36:28.202Z,24.10
2023-06-20T12:39:33.242Z,24.40
2023-06-20T12:42:38.304Z,24.20
2023-06-20T12:45:43.121Z,24.00
2023-06-20T12:48:47.312Z,23.20
2023-06-20T12:51:51.751Z,23.60
2023-06-20T12:54:58.399Z,24.10
2023-06-20T12:58:03.083Z,24.10
2023-06-20T13:01:07.838Z,24.20
2023-06-20T13:04:12.554Z,24.30
2023-06-20T13:07:17.614Z,24.50
2023-06-20T13:10:23.398Z,24.70
2023-06-20T13:13:28.087Z,24.50
2023-06-20T13:16:33.300Z,25.00
2023-06-20T13:19:38.022Z,25.20
2023-06-20T13:22:43.147Z,24.60
2023-06-20T13:25:48.013Z,23.80
2023-06-20T13:28:52.356Z,24.10
2023-06-20T13:31:56.804Z,24.50
2023-06-20T13:35:04.053Z,25.20
2023-06-20T13:38:08.560Z,25.00
2023-06-20T13:41:13.418Z,24.90
2023-06-20T13:44:18.273Z,25.50
2023-06-20T13:47:22.855Z,26.50
2023-06-20T13:50:27.720Z,26.40
2023-06-20T13:53:32.168Z,24.80
2023-06-20T13:56:36.678Z,23.80
2023-06-20T13:59:43.523Z,23.90
2023-06-20T14:02:48.897Z,23.60
2023-06-20T14:05:56.563Z,23.90
2023-06-20T14:09:01.406Z,23.60
2023-06-20T14:12:08.919Z,23.60
2023-06-20T14:15:13.291Z,23.40
2023-06-20T14:18:17.778Z,23.50
2023-06-20T14:21:21.880Z,24.30
2023-06-20T14:24:26.381Z,24.00
2023-06-20T14:27:30.911Z,23.70
2023-06-20T14:30:35.481Z,23.90
2023-06-20T14:33:40.337Z,23.90
2023-06-20T14:36:45.039Z,24.40
2023-06-20T14:39:49.468Z,24.10
2023-06-20T14:42:54.092Z,23.70
2023-06-20T14:45:58.748Z,24.50
2023-06-20T14:49:03.256Z,24.10
2023-06-20T14:52:07.571Z,24.20
2023-06-20T14:55:12.165Z,24.30
2023-06-20T14:58:16.965Z,24.20
2023-06-20T15:01:21.819Z,23.90
2023-06-20T15:04:26.416Z,24.10
2023-06-20T15:07:31.095Z,24.20
2023-06-20T15:10:35.736Z,24.00
2023-06-20T15:13:40.436Z,24.60
2023-06-20T15:16:45.297Z,25.10
2023-06-20T15:19:50.098Z,25.50
2023-06-20T15:22:57.774Z,24.80
2023-06-20T15:26:02.062Z,25.50
2023-06-20T15:29:06.581Z,26.70
2023-06-20T15:32:11.228Z,25.80
2023-06-20T15:35:15.814Z,26.60
2023-06-20T15:38:20.366Z,28.00
2023-06-20T15:41:24.926Z,27.50
2023-06-20T15:44:38.941Z,27.60
2023-06-20T15:47:55.875Z,28.60
2023-06-20T15:51:12.096Z,27.50
2023-06-20T15:54:23.467Z,27.40
2023-06-20T15:57:45.002Z,27.50
2023-06-20T16:00:56.489Z,28.20
2023-06-20T16:04:02.251Z,27.60
2023-06-20T16:07:15.783Z,27.60
2023-06-20T16:10:20.778Z,28.30
2023-06-20T16:13:25.327Z,27.60
2023-06-20T16:16:30.431Z,28.50
2023-06-20T16:19:34.838Z,27.90
2023-06-20T16:22:39.663Z,27.30
2023-06-20T16:25:44.380Z,27.60
2023-06-20T16:28:48.752Z,28.90
2023-06-20T16:31:53.238Z,29.50
2023-06-20T16:34:57.656Z,27.20
2023-06-20T16:38:02.362Z,27.00
2023-06-20T16:41:06.892Z,27.80
2023-06-20T16:44:11.650Z,27.20
2023-06-20T16:47:16.295Z,26.70
2023-06-20T16:50:20.437Z,25.80
2023-06-20T16:53:24.996Z,25.40
2023-06-20T16:56:30.001Z,25.00
2023-06-20T16:59:35.156Z,24.60
2023-06-20T17:02:39.590Z,24.50
2023-06-20T17:05:43.952Z,24.40
2023-06-20T17:08:48.554Z,24.40
2023-06-20T17:11:53.261Z,24.30
2023-06-20T17:15:00.946Z,24.30
2023-06-20T17:18:05.904Z,24.10
2023-06-20T17:21:10.419Z,23.90
2023-06-20T17:24:16.316Z,23.90
2023-06-20T17:27:20.716Z,23.90
2023-06-20T17:30:25.885Z,23.70
2023-06-20T17:33:30.572Z,23.80
2023-06-20T17:36:35.345Z,23.70
2023-06-20T17:39:39.993Z,23.60
2023-06-20T17:42:44.247Z,23.60
2023-06-20T17:45:48.743Z,23.30
2023-06-20T17:48:53.263Z,23.00
2023-06-20T17:51:57.993Z,23.10
2023-06-20T17:55:02.720Z,23.10
2023-06-20T17:58:07.401Z,23.10
2023-06-20T18:01:12.022Z,23.00
2023-06-20T18:04:16.456Z,23.00
2023-06-20T18:07:21.396Z,22.80
2023-06-20T18:10:27.294Z,22.70
2023-06-20T18:13:32.463Z,22.70
2023-06-20T18:16:36.970Z,22.70
2023-06-20T18:19:55.194Z,22.60
2023-06-20T18:23:01.091Z,22.50
2023-06-20T18:26:05.900Z,22.40
2023-06-20T18:29:10.490Z,22.40
2023-06-20T18:32:17.007Z,22.30
2023-06-20T18:35:23.573Z,22.20
2023-06-20T18:38:28.058Z,22.20
2023-06-20T18:41:33.575Z,22.00
2023-06-20T18:44:39.041Z,21.90
2023-06-20T18:47:45.626Z,21.80
2023-06-20T18:50:50.083Z,21.80
2023-06-20T18:53:54.818Z,21.80
2023-06-20T18:56:59.817Z,21.60
2023-06-20T19:00:07.181Z,21.50
2023-06-20T19:03:16.987Z,21.40
2023-06-20T19:06:21.403Z,21.30
2023-06-20T19:09:38.654Z,21.20
2023-06-20T19:12:43.370Z,21.20
2023-06-20T19:15:48.062Z,21.10
2023-06-20T19:18:52.816Z,21.00
2023-06-20T19:21:57.521Z,20.90
2023-06-20T19:25:01.807Z,20.90
2023-06-20T19:28:07.307Z,20.80
2023-06-20T19:31:11.906Z,20.80
2023-06-20T19:34:16.794Z,20.70
2023-06-20T19:37:21.288Z,20.60
2023-06-20T19:40:25.961Z,20.60
2023-06-20T19:43:30.550Z,20.50
2023-06-20T19:46:35.382Z,20.40
2023-06-20T19:49:39.988Z,20.40
2023-06-20T19:52:44.402Z,20.40
2023-06-20T19:55:49.084Z,20.30
2023-06-20T19:58:53.395Z,20.30
2023-06-20T20:01:58.131Z,20.30
2023-06-20T20:05:02.777Z,20.20
2023-06-20T20:08:07.680Z,20.10
2023-06-20T20:11:11.947Z,20.10
2023-06-20T20:14:16.464Z,19.90
2023-06-20T20:17:21.187Z,19.90
2023-06-20T20:20:25.941Z,19.90
2023-06-20T20:23:42.641Z,19.80
2023-06-20T20:26:51.115Z,19.70
2023-06-20T20:29:55.651Z,19.60
2023-06-20T20:33:00.752Z,19.60
2023-06-20T20:36:05.181Z,19.50
2023-06-20T20:39:09.577Z,19.40
2023-06-20T20:42:14.223Z,19.40
2023-06-20T20:45:20.042Z,19.30
2023-06-20T20:48:24.414Z,19.20
2023-06-20T20:51:29.558Z,19.20
2023-06-20T20:54:35.122Z,19.20
2023-06-20T20:57:39.881Z,19.10
2023-06-20T21:00:44.977Z,19.10
2023-06-20T21:03:50.100Z,19.00
2023-06-20T21:06:54.704Z,19.00
2023-06-20T21:09:59.113Z,18.90
2023-06-20T21:13:04.204Z,18.80
2023-06-20T21:16:12.526Z,18.80
2023-06-20T21:19:17.218Z,18.70
2023-06-20T21:22:21.903Z,18.60
2023-06-20T21:25:26.583Z,18.60
2023-06-20T21:28:31.239Z,18.60
2023-06-20T21:31:35.692Z,18.60
2023-06-20T21:34:46.394Z,18.60
2023-06-20T21:37:55.270Z,18.60
2023-06-20T21:41:20.243Z,18.80
2023-06-20T21:44:39.586Z,18.60
2023-06-20T21:47:50.514Z,18.60
2023-06-20T21:50:59.436Z,18.60
2023-06-20T21:54:12.692Z,18.60
2023-06-20T21:57:22.600Z,18.70
2023-06-20T22:00:30.246Z,18.50
2023-06-20T22:03:41.351Z,18.60
2023-06-20T22:06:54.254Z,18.60
2023-06-20T22:10:05.103Z,18.50
2023-06-20T22:13:14.741Z,18.50
2023-06-20T22:16:23.469Z,18.50
2023-06-20T22:19:28.245Z,18.40
2023-06-20T22:22:34.409Z,18.30
2023-06-20T22:25:38.994Z,18.30
2023-06-20T22:28:43.299Z,18.30
2023-06-20T22:31:47.509Z,18.30
2023-06-20T22:34:52.011Z,18.30
2023-06-20T22:37:56.967Z,18.20
2023-06-20T22:41:01.706Z,18.20
2023-06-20T22:44:06.192Z,18.20
2023-06-20T22:47:10.323Z,18.20
2023-06-20T22:50:14.750Z,18.20
2023-06-20T22:53:19.003Z,18.20
2023-06-20T22:56:23.512Z,18.30
2023-06-20T22:59:28.252Z,18.30
2023-06-20T23:02:32.613Z,18.40
2023-06-20T23:05:37.529Z,18.30
2023-06-20T23:08:42.084Z,18.40
2023-06-20T23:11:46.866Z,18.40
2023-06-20T23:14:51.698Z,18.40
2023-06-20T23:17:56.118Z,18.40
2023-06-20T23:21:04.751Z,18.40
2023-06-20T23:24:09.462Z,18.40
2023-06-20T23:27:13.790Z,18.30
2023-06-20T23:30:19.183Z,18.30
2023-06-20T23:33:24.935Z,18.30
2023-06-20T23:36:31.996Z,18.30
2023-06-20T23:39:36.939Z,18.30
2023-06-20T23:42:42.262Z,18.30
2023-06-20T23:45:47.937Z,18.30
2023-06-20T23:48:52.604Z,18.40
2023-06-20T23:51:57.141Z,18.40
2023-06-20T23:55:01.751Z,18.40
2023-06-20T23:58:06.426Z,18.50
